sensor_id;sensor_type;location;lat;lon;timestamp;P1;durP1;ratioP1;P2;durP2;ratioP2
10269;SDS011;70826;50.930;5.334;2023-12-20T00:01:10;16.73;;;15.30;;
10269;SDS011;70826;50.930;5.334;2023-12-20T00:03:39;15.77;;;14.63;;
10269;SDS011;70826;50.930;5.334;2023-12-20T00:06:04;14.50;;;13.32;;
10269;SDS011;70826;50.930;5.334;2023-12-20T00:08:32;13.55;;;12.48;;
10269;SDS011;70826;50.930;5.334;2023-12-20T00:10:58;14.32;;;13.20;;
10269;SDS011;70826;50.930;5.334;2023-12-20T00:13:24;13.55;;;12.40;;
10269;SDS011;70826;50.930;5.334;2023-12-20T00:15:51;13.25;;;12.13;;
10269;SDS011;70826;50.930;5.334;2023-12-20T00:18:22;13.27;;;12.15;;
10269;SDS011;70826;50.930;5.334;2023-12-20T00:20:48;13.00;;;11.93;;
10269;SDS011;70826;50.930;5.334;2023-12-20T00:23:13;11.30;;;10.30;;
10269;SDS011;70826;50.930;5.334;2023-12-20T00:25:41;10.70;;;9.75;;
10269;SDS011;70826;50.930;5.334;2023-12-20T00:28:09;10.13;;;9.13;;
10269;SDS011;70826;50.930;5.334;2023-12-20T00:30:35;10.52;;;9.70;;
10269;SDS011;70826;50.930;5.334;2023-12-20T00:33:03;9.63;;;8.90;;
10269;SDS011;70826;50.930;5.334;2023-12-20T00:35:29;8.98;;;8.35;;
10269;SDS011;70826;50.930;5.334;2023-12-20T00:37:57;9.30;;;8.48;;
10269;SDS011;70826;50.930;5.334;2023-12-20T00:40:26;8.32;;;7.63;;
10269;SDS011;70826;50.930;5.334;2023-12-20T00:42:51;7.72;;;7.05;;
10269;SDS011;70826;50.930;5.334;2023-12-20T00:45:17;7.28;;;6.65;;
10269;SDS011;70826;50.930;5.334;2023-12-20T00:47:47;9.07;;;6.97;;
10269;SDS011;70826;50.930;5.334;2023-12-20T00:50:17;7.50;;;6.80;;
10269;SDS011;70826;50.930;5.334;2023-12-20T00:52:43;7.25;;;6.63;;
10269;SDS011;70826;50.930;5.334;2023-12-20T00:55:08;7.47;;;6.72;;
10269;SDS011;70826;50.930;5.334;2023-12-20T00:57:34;7.43;;;6.82;;
10269;SDS011;70826;50.930;5.334;2023-12-20T01:00:02;7.32;;;6.65;;
10269;SDS011;70826;50.930;5.334;2023-12-20T01:02:28;7.18;;;6.47;;
10269;SDS011;70826;50.930;5.334;2023-12-20T01:04:54;8.38;;;6.78;;
10269;SDS011;70826;50.930;5.334;2023-12-20T01:07:22;6.65;;;6.15;;
10269;SDS011;70826;50.930;5.334;2023-12-20T01:09:47;7.28;;;6.40;;
10269;SDS011;70826;50.930;5.334;2023-12-20T01:12:13;6.90;;;6.25;;
10269;SDS011;70826;50.930;5.334;2023-12-20T01:14:41;6.63;;;6.03;;
10269;SDS011;70826;50.930;5.334;2023-12-20T01:17:07;7.07;;;6.47;;
10269;SDS011;70826;50.930;5.334;2023-12-20T01:19:39;6.85;;;6.18;;
10269;SDS011;70826;50.930;5.334;2023-12-20T01:22:10;6.38;;;5.90;;
10269;SDS011;70826;50.930;5.334;2023-12-20T01:24:40;7.25;;;5.78;;
10269;SDS011;70826;50.930;5.334;2023-12-20T01:27:08;6.57;;;6.00;;
10269;SDS011;70826;50.930;5.334;2023-12-20T01:29:38;5.90;;;5.40;;
10269;SDS011;70826;50.930;5.334;2023-12-20T01:32:06;6.65;;;6.05;;
10269;SDS011;70826;50.930;5.334;2023-12-20T01:34:37;6.47;;;5.88;;
10269;SDS011;70826;50.930;5.334;2023-12-20T01:37:07;6.47;;;5.65;;
10269;SDS011;70826;50.930;5.334;2023-12-20T01:39:33;5.85;;;5.45;;
10269;SDS011;70826;50.930;5.334;2023-12-20T01:41:58;5.93;;;5.07;;
10269;SDS011;70826;50.930;5.334;2023-12-20T01:44:29;6.43;;;5.82;;
10269;SDS011;70826;50.930;5.334;2023-12-20T01:46:57;5.85;;;5.25;;
10269;SDS011;70826;50.930;5.334;2023-12-20T01:49:28;6.30;;;5.80;;
10269;SDS011;70826;50.930;5.334;2023-12-20T01:51:57;5.60;;;5.10;;
10269;SDS011;70826;50.930;5.334;2023-12-20T01:54:25;6.03;;;5.22;;
10269;SDS011;70826;50.930;5.334;2023-12-20T01:56:50;5.47;;;4.88;;
10269;SDS011;70826;50.930;5.334;2023-12-20T01:59:18;7.20;;;5.15;;
10269;SDS011;70826;50.930;5.334;2023-12-20T02:01:47;5.40;;;4.72;;
10269;SDS011;70826;50.930;5.334;2023-12-20T02:04:15;6.55;;;4.97;;
10269;SDS011;70826;50.930;5.334;2023-12-20T02:06:46;5.65;;;4.45;;
10269;SDS011;70826;50.930;5.334;2023-12-20T02:09:17;5.45;;;4.65;;
10269;SDS011;70826;50.930;5.334;2023-12-20T02:11:45;5.25;;;4.75;;
10269;SDS011;70826;50.930;5.334;2023-12-20T02:14:14;5.13;;;4.45;;
10269;SDS011;70826;50.930;5.334;2023-12-20T02:16:44;5.70;;;4.40;;
10269;SDS011;70826;50.930;5.334;2023-12-20T02:19:13;5.35;;;4.15;;
10269;SDS011;70826;50.930;5.334;2023-12-20T02:21:42;4.82;;;4.43;;
10269;SDS011;70826;50.930;5.334;2023-12-20T02:24:10;4.88;;;4.32;;
10269;SDS011;70826;50.930;5.334;2023-12-20T02:26:38;4.45;;;4.05;;
10269;SDS011;70826;50.930;5.334;2023-12-20T02:29:09;5.43;;;4.05;;
10269;SDS011;70826;50.930;5.334;2023-12-20T02:31:35;5.60;;;4.28;;
10269;SDS011;70826;50.930;5.334;2023-12-20T02:34:05;4.88;;;4.13;;
10269;SDS011;70826;50.930;5.334;2023-12-20T02:36:33;5.50;;;4.38;;
10269;SDS011;70826;50.930;5.334;2023-12-20T02:39:00;6.30;;;4.20;;
10269;SDS011;70826;50.930;5.334;2023-12-20T02:41:26;6.00;;;4.28;;
10269;SDS011;70826;50.930;5.334;2023-12-20T02:43:56;4.50;;;3.58;;
10269;SDS011;70826;50.930;5.334;2023-12-20T02:46:26;4.68;;;3.95;;
10269;SDS011;70826;50.930;5.334;2023-12-20T02:48:52;4.65;;;4.22;;
10269;SDS011;70826;50.930;5.334;2023-12-20T02:51:20;5.70;;;3.72;;
10269;SDS011;70826;50.930;5.334;2023-12-20T02:53:46;4.20;;;3.80;;
10269;SDS011;70826;50.930;5.334;2023-12-20T02:56:11;5.90;;;3.65;;
10269;SDS011;70826;50.930;5.334;2023-12-20T02:58:41;3.90;;;3.40;;
10269;SDS011;70826;50.930;5.334;2023-12-20T03:01:09;4.68;;;3.65;;
10269;SDS011;70826;50.930;5.334;2023-12-20T03:03:37;4.72;;;3.60;;
10269;SDS011;70826;50.930;5.334;2023-12-20T03:06:07;5.72;;;3.35;;
10269;SDS011;70826;50.930;5.334;2023-12-20T03:08:33;4.05;;;3.65;;
10269;SDS011;70826;50.930;5.334;2023-12-20T03:11:03;4.90;;;3.45;;
10269;SDS011;70826;50.930;5.334;2023-12-20T03:13:31;4.72;;;3.47;;
10269;SDS011;70826;50.930;5.334;2023-12-20T03:15:59;5.53;;;3.38;;
10269;SDS011;70826;50.930;5.334;2023-12-20T03:18:27;4.00;;;3.55;;
10269;SDS011;70826;50.930;5.334;2023-12-20T03:20:53;4.63;;;3.42;;
10269;SDS011;70826;50.930;5.334;2023-12-20T03:23:19;5.55;;;3.50;;
10269;SDS011;70826;50.930;5.334;2023-12-20T03:25:45;3.67;;;3.13;;
10269;SDS011;70826;50.930;5.334;2023-12-20T03:28:13;5.05;;;3.63;;
10269;SDS011;70826;50.930;5.334;2023-12-20T03:30:42;4.57;;;3.25;;
10269;SDS011;70826;50.930;5.334;2023-12-20T03:33:12;5.28;;;3.70;;
10269;SDS011;70826;50.930;5.334;2023-12-20T03:35:38;5.05;;;3.30;;
10269;SDS011;70826;50.930;5.334;2023-12-20T03:38:04;3.88;;;3.35;;
10269;SDS011;70826;50.930;5.334;2023-12-20T03:40:32;4.95;;;3.60;;
10269;SDS011;70826;50.930;5.334;2023-12-20T03:43:02;5.35;;;3.72;;
10269;SDS011;70826;50.930;5.334;2023-12-20T03:45:28;3.40;;;3.08;;
10269;SDS011;70826;50.930;5.334;2023-12-20T03:47:56;4.70;;;3.85;;
10269;SDS011;70826;50.930;5.334;2023-12-20T03:50:22;3.88;;;3.50;;
10269;SDS011;70826;50.930;5.334;2023-12-20T03:52:50;4.70;;;3.42;;
10269;SDS011;70826;50.930;5.334;2023-12-20T03:55:18;4.50;;;3.53;;
10269;SDS011;70826;50.930;5.334;2023-12-20T03:57:46;5.35;;;3.70;;
10269;SDS011;70826;50.930;5.334;2023-12-20T04:00:17;4.03;;;3.33;;
10269;SDS011;70826;50.930;5.334;2023-12-20T04:02:43;4.57;;;3.35;;
10269;SDS011;70826;50.930;5.334;2023-12-20T04:05:11;4.20;;;3.38;;
10269;SDS011;70826;50.930;5.334;2023-12-20T04:07:39;4.65;;;3.38;;
10269;SDS011;70826;50.930;5.334;2023-12-20T04:10:12;5.90;;;3.55;;
10269;SDS011;70826;50.930;5.334;2023-12-20T04:12:40;5.53;;;3.38;;
10269;SDS011;70826;50.930;5.334;2023-12-20T04:15:08;4.85;;;3.72;;
10269;SDS011;70826;50.930;5.334;2023-12-20T04:17:35;6.55;;;3.75;;
10269;SDS011;70826;50.930;5.334;2023-12-20T04:20:05;5.82;;;3.80;;
10269;SDS011;70826;50.930;5.334;2023-12-20T04:22:34;5.30;;;3.75;;
10269;SDS011;70826;50.930;5.334;2023-12-20T04:25:02;4.18;;;3.42;;
10269;SDS011;70826;50.930;5.334;2023-12-20T04:27:30;7.43;;;3.67;;
10269;SDS011;70826;50.930;5.334;2023-12-20T04:29:58;4.85;;;3.65;;
10269;SDS011;70826;50.930;5.334;2023-12-20T04:32:26;5.80;;;3.75;;
10269;SDS011;70826;50.930;5.334;2023-12-20T04:34:51;4.57;;;3.90;;
10269;SDS011;70826;50.930;5.334;2023-12-20T04:37:19;4.18;;;3.85;;
10269;SDS011;70826;50.930;5.334;2023-12-20T04:39:47;7.75;;;4.10;;
10269;SDS011;70826;50.930;5.334;2023-12-20T04:42:17;5.55;;;3.83;;
10269;SDS011;70826;50.930;5.334;2023-12-20T04:44:48;5.82;;;4.13;;
10269;SDS011;70826;50.930;5.334;2023-12-20T04:47:18;4.45;;;3.47;;
10269;SDS011;70826;50.930;5.334;2023-12-20T04:49:46;4.20;;;3.80;;
10269;SDS011;70826;50.930;5.334;2023-12-20T04:52:13;5.70;;;4.35;;
10269;SDS011;70826;50.930;5.334;2023-12-20T04:54:44;5.05;;;3.88;;
10269;SDS011;70826;50.930;5.334;2023-12-20T04:57:10;6.75;;;3.80;;
10269;SDS011;70826;50.930;5.334;2023-12-20T04:59:37;5.45;;;4.00;;
10269;SDS011;70826;50.930;5.334;2023-12-20T05:02:06;5.80;;;4.10;;
10269;SDS011;70826;50.930;5.334;2023-12-20T05:04:31;7.68;;;4.20;;
10269;SDS011;70826;50.930;5.334;2023-12-20T05:06:57;5.80;;;4.07;;
10269;SDS011;70826;50.930;5.334;2023-12-20T05:09:29;4.70;;;4.10;;
10269;SDS011;70826;50.930;5.334;2023-12-20T05:11:55;5.90;;;4.22;;
10269;SDS011;70826;50.930;5.334;2023-12-20T05:14:23;7.32;;;4.07;;
10269;SDS011;70826;50.930;5.334;2023-12-20T05:16:52;5.05;;;4.45;;
10269;SDS011;70826;50.930;5.334;2023-12-20T05:19:22;5.43;;;3.97;;
10269;SDS011;70826;50.930;5.334;2023-12-20T05:21:51;4.47;;;4.07;;
10269;SDS011;70826;50.930;5.334;2023-12-20T05:24:22;5.78;;;4.40;;
10269;SDS011;70826;50.930;5.334;2023-12-20T05:26:49;8.10;;;4.47;;
10269;SDS011;70826;50.930;5.334;2023-12-20T05:29:15;6.88;;;4.63;;
10269;SDS011;70826;50.930;5.334;2023-12-20T05:31:41;5.22;;;4.38;;
10269;SDS011;70826;50.930;5.334;2023-12-20T05:34:10;5.53;;;4.28;;
10269;SDS011;70826;50.930;5.334;2023-12-20T05:36:38;5.28;;;4.22;;
10269;SDS011;70826;50.930;5.334;2023-12-20T05:39:05;6.30;;;4.15;;
10269;SDS011;70826;50.930;5.334;2023-12-20T05:41:32;7.38;;;4.85;;
10269;SDS011;70826;50.930;5.334;2023-12-20T05:44:00;5.45;;;4.40;;
10269;SDS011;70826;50.930;5.334;2023-12-20T05:46:26;5.00;;;4.50;;
10269;SDS011;70826;50.930;5.334;2023-12-20T05:48:54;6.43;;;4.75;;
10269;SDS011;70826;50.930;5.334;2023-12-20T05:51:20;6.40;;;4.65;;
10269;SDS011;70826;50.930;5.334;2023-12-20T05:53:45;6.53;;;4.80;;
10269;SDS011;70826;50.930;5.334;2023-12-20T05:56:11;5.78;;;4.55;;
10269;SDS011;70826;50.930;5.334;2023-12-20T05:58:41;6.28;;;4.63;;
10269;SDS011;70826;50.930;5.334;2023-12-20T06:01:09;7.18;;;4.97;;
10269;SDS011;70826;50.930;5.334;2023-12-20T06:03:41;5.45;;;4.45;;
10269;SDS011;70826;50.930;5.334;2023-12-20T06:06:07;6.32;;;4.55;;
10269;SDS011;70826;50.930;5.334;2023-12-20T06:08:35;6.07;;;4.47;;
10269;SDS011;70826;50.930;5.334;2023-12-20T06:11:05;5.40;;;4.28;;
10269;SDS011;70826;50.930;5.334;2023-12-20T06:13:34;5.82;;;4.65;;
10269;SDS011;70826;50.930;5.334;2023-12-20T06:16:01;6.40;;;4.75;;
10269;SDS011;70826;50.930;5.334;2023-12-20T06:18:31;5.80;;;4.55;;
10269;SDS011;70826;50.930;5.334;2023-12-20T06:20:56;6.15;;;4.78;;
10269;SDS011;70826;50.930;5.334;2023-12-20T06:23:24;8.38;;;4.63;;
10269;SDS011;70826;50.930;5.334;2023-12-20T06:25:49;5.30;;;4.55;;
10269;SDS011;70826;50.930;5.334;2023-12-20T06:28:15;6.45;;;5.10;;
10269;SDS011;70826;50.930;5.334;2023-12-20T06:30:45;5.80;;;4.57;;
10269;SDS011;70826;50.930;5.334;2023-12-20T06:33:14;5.70;;;4.90;;
10269;SDS011;70826;50.930;5.334;2023-12-20T06:35:43;6.32;;;4.22;;
10269;SDS011;70826;50.930;5.334;2023-12-20T06:38:11;6.45;;;4.85;;
10269;SDS011;70826;50.930;5.334;2023-12-20T06:40:37;7.13;;;5.07;;
10269;SDS011;70826;50.930;5.334;2023-12-20T06:43:05;6.78;;;4.97;;
10269;SDS011;70826;50.930;5.334;2023-12-20T06:45:31;6.90;;;4.82;;
10269;SDS011;70826;50.930;5.334;2023-12-20T06:47:57;7.13;;;4.60;;
10269;SDS011;70826;50.930;5.334;2023-12-20T06:50:23;6.13;;;4.30;;
10269;SDS011;70826;50.930;5.334;2023-12-20T06:52:51;9.55;;;4.93;;
10269;SDS011;70826;50.930;5.334;2023-12-20T06:55:19;5.13;;;4.63;;
10269;SDS011;70826;50.930;5.334;2023-12-20T06:57:44;6.97;;;4.75;;
10269;SDS011;70826;50.930;5.334;2023-12-20T07:00:11;6.72;;;5.00;;
10269;SDS011;70826;50.930;5.334;2023-12-20T07:02:41;5.05;;;4.38;;
10269;SDS011;70826;50.930;5.334;2023-12-20T07:05:09;9.32;;;4.97;;
10269;SDS011;70826;50.930;5.334;2023-12-20T07:07:37;7.28;;;4.75;;
10269;SDS011;70826;50.930;5.334;2023-12-20T07:10:03;6.82;;;4.65;;
10269;SDS011;70826;50.930;5.334;2023-12-20T07:12:35;6.05;;;4.40;;
10269;SDS011;70826;50.930;5.334;2023-12-20T07:15:00;5.85;;;4.57;;
10269;SDS011;70826;50.930;5.334;2023-12-20T07:17:26;6.43;;;5.18;;
10269;SDS011;70826;50.930;5.334;2023-12-20T07:19:56;6.13;;;4.75;;
10269;SDS011;70826;50.930;5.334;2023-12-20T07:22:24;5.38;;;4.43;;
10269;SDS011;70826;50.930;5.334;2023-12-20T07:24:52;7.00;;;4.85;;
10269;SDS011;70826;50.930;5.334;2023-12-20T07:27:20;6.90;;;4.65;;
10269;SDS011;70826;50.930;5.334;2023-12-20T07:29:50;7.63;;;4.90;;
10269;SDS011;70826;50.930;5.334;2023-12-20T07:32:18;6.43;;;4.63;;
10269;SDS011;70826;50.930;5.334;2023-12-20T07:34:46;6.88;;;4.45;;
10269;SDS011;70826;50.930;5.334;2023-12-20T07:37:18;5.78;;;4.85;;
10269;SDS011;70826;50.930;5.334;2023-12-20T07:39:49;6.93;;;4.45;;
10269;SDS011;70826;50.930;5.334;2023-12-20T07:42:17;9.07;;;5.13;;
10269;SDS011;70826;50.930;5.334;2023-12-20T07:44:45;7.47;;;4.85;;
10269;SDS011;70826;50.930;5.334;2023-12-20T07:47:13;6.53;;;4.65;;
10269;SDS011;70826;50.930;5.334;2023-12-20T07:49:46;4.97;;;4.47;;
10269;SDS011;70826;50.930;5.334;2023-12-20T07:52:19;5.93;;;4.82;;
10269;SDS011;70826;50.930;5.334;2023-12-20T07:54:46;6.18;;;4.50;;
10269;SDS011;70826;50.930;5.334;2023-12-20T07:57:12;5.90;;;4.78;;
10269;SDS011;70826;50.930;5.334;2023-12-20T07:59:38;5.22;;;4.72;;
10269;SDS011;70826;50.930;5.334;2023-12-20T08:02:05;7.40;;;4.70;;
10269;SDS011;70826;50.930;5.334;2023-12-20T08:04:31;7.10;;;4.53;;
10269;SDS011;70826;50.930;5.334;2023-12-20T08:07:00;5.40;;;4.65;;
10269;SDS011;70826;50.930;5.334;2023-12-20T08:09:27;7.88;;;4.95;;
10269;SDS011;70826;50.930;5.334;2023-12-20T08:11:53;5.20;;;4.70;;
10269;SDS011;70826;50.930;5.334;2023-12-20T08:14:21;5.85;;;4.53;;
10269;SDS011;70826;50.930;5.334;2023-12-20T08:16:49;7.90;;;4.82;;
10269;SDS011;70826;50.930;5.334;2023-12-20T08:19:15;5.78;;;4.65;;
10269;SDS011;70826;50.930;5.334;2023-12-20T08:21:48;5.68;;;4.85;;
10269;SDS011;70826;50.930;5.334;2023-12-20T08:24:18;7.28;;;4.65;;
10269;SDS011;70826;50.930;5.334;2023-12-20T08:26:46;5.57;;;4.68;;
10269;SDS011;70826;50.930;5.334;2023-12-20T08:29:13;5.10;;;4.45;;
10269;SDS011;70826;50.930;5.334;2023-12-20T08:31:39;5.93;;;4.53;;
10269;SDS011;70826;50.930;5.334;2023-12-20T08:34:07;4.90;;;4.40;;
10269;SDS011;70826;50.930;5.334;2023-12-20T08:36:33;6.65;;;4.32;;
10269;SDS011;70826;50.930;5.334;2023-12-20T08:39:00;6.45;;;4.95;;
10269;SDS011;70826;50.930;5.334;2023-12-20T08:41:28;6.75;;;4.18;;
10269;SDS011;70826;50.930;5.334;2023-12-20T08:43:54;7.05;;;5.43;;
10269;SDS011;70826;50.930;5.334;2023-12-20T08:46:24;11.38;;;6.40;;
10269;SDS011;70826;50.930;5.334;2023-12-20T08:48:50;11.98;;;5.60;;
10269;SDS011;70826;50.930;5.334;2023-12-20T08:51:16;8.60;;;5.63;;
10269;SDS011;70826;50.930;5.334;2023-12-20T08:53:44;5.95;;;5.35;;
10269;SDS011;70826;50.930;5.334;2023-12-20T08:56:11;6.30;;;4.47;;
10269;SDS011;70826;50.930;5.334;2023-12-20T08:58:45;4.90;;;4.43;;
10269;SDS011;70826;50.930;5.334;2023-12-20T09:01:11;6.45;;;4.47;;
10269;SDS011;70826;50.930;5.334;2023-12-20T09:03:37;7.10;;;4.50;;
10269;SDS011;70826;50.930;5.334;2023-12-20T09:06:05;12.10;;;4.40;;
10269;SDS011;70826;50.930;5.334;2023-12-20T09:08:36;4.72;;;4.25;;
10269;SDS011;70826;50.930;5.334;2023-12-20T09:11:02;6.38;;;4.65;;
10269;SDS011;70826;50.930;5.334;2023-12-20T09:13:32;6.22;;;4.28;;
10269;SDS011;70826;50.930;5.334;2023-12-20T09:16:00;6.00;;;4.40;;
10269;SDS011;70826;50.930;5.334;2023-12-20T09:18:28;6.15;;;4.60;;
10269;SDS011;70826;50.930;5.334;2023-12-20T09:20:54;6.80;;;4.32;;
10269;SDS011;70826;50.930;5.334;2023-12-20T09:23:20;5.03;;;4.60;;
10269;SDS011;70826;50.930;5.334;2023-12-20T09:25:50;7.07;;;4.38;;
10269;SDS011;70826;50.930;5.334;2023-12-20T09:28:16;5.13;;;4.20;;
10269;SDS011;70826;50.930;5.334;2023-12-20T09:30:42;10.93;;;4.68;;
10269;SDS011;70826;50.930;5.334;2023-12-20T09:33:13;6.43;;;4.30;;
10269;SDS011;70826;50.930;5.334;2023-12-20T09:35:39;7.00;;;4.53;;
10269;SDS011;70826;50.930;5.334;2023-12-20T09:38:07;6.15;;;4.50;;
10269;SDS011;70826;50.930;5.334;2023-12-20T09:40:41;7.80;;;4.57;;
10269;SDS011;70826;50.930;5.334;2023-12-20T09:43:17;8.13;;;4.55;;
10269;SDS011;70826;50.930;5.334;2023-12-20T09:45:45;5.90;;;4.03;;
10269;SDS011;70826;50.930;5.334;2023-12-20T09:48:22;3.90;;;3.33;;
10269;SDS011;70826;50.930;5.334;2023-12-20T09:50:52;6.50;;;3.50;;
10269;SDS011;70826;50.930;5.334;2023-12-20T09:53:20;5.60;;;3.28;;
10269;SDS011;70826;50.930;5.334;2023-12-20T09:55:51;7.57;;;3.33;;
10269;SDS011;70826;50.930;5.334;2023-12-20T09:58:17;4.07;;;2.88;;
10269;SDS011;70826;50.930;5.334;2023-12-20T10:00:45;5.18;;;3.30;;
10269;SDS011;70826;50.930;5.334;2023-12-20T10:03:11;6.10;;;3.45;;
10269;SDS011;70826;50.930;5.334;2023-12-20T10:05:41;5.28;;;3.20;;
10269;SDS011;70826;50.930;5.334;2023-12-20T10:08:12;5.55;;;3.30;;
10269;SDS011;70826;50.930;5.334;2023-12-20T10:10:39;4.63;;;3.13;;
10269;SDS011;70826;50.930;5.334;2023-12-20T10:13:12;6.30;;;3.67;;
10269;SDS011;70826;50.930;5.334;2023-12-20T10:15:40;6.05;;;3.08;;
10269;SDS011;70826;50.930;5.334;2023-12-20T10:18:08;6.35;;;3.50;;
10269;SDS011;70826;50.930;5.334;2023-12-20T10:20:34;5.00;;;3.25;;
10269;SDS011;70826;50.930;5.334;2023-12-20T10:23:02;5.63;;;3.13;;
10269;SDS011;70826;50.930;5.334;2023-12-20T10:25:28;7.70;;;3.50;;
10269;SDS011;70826;50.930;5.334;2023-12-20T10:30:39;6.53;;;3.47;;
10269;SDS011;70826;50.930;5.334;2023-12-20T10:33:09;6.47;;;3.20;;
10269;SDS011;70826;50.930;5.334;2023-12-20T10:35:38;5.95;;;3.10;;
10269;SDS011;70826;50.930;5.334;2023-12-20T10:38:06;3.50;;;2.90;;
10269;SDS011;70826;50.930;5.334;2023-12-20T10:40:35;4.20;;;2.97;;
10269;SDS011;70826;50.930;5.334;2023-12-20T10:43:08;6.10;;;3.38;;
10269;SDS011;70826;50.930;5.334;2023-12-20T10:45:34;4.95;;;3.33;;
10269;SDS011;70826;50.930;5.334;2023-12-20T10:48:03;5.68;;;3.60;;
10269;SDS011;70826;50.930;5.334;2023-12-20T10:50:32;4.85;;;3.30;;
10269;SDS011;70826;50.930;5.334;2023-12-20T10:53:01;3.55;;;2.90;;
10269;SDS011;70826;50.930;5.334;2023-12-20T10:55:28;4.30;;;3.28;;
10269;SDS011;70826;50.930;5.334;2023-12-20T10:58:00;6.32;;;3.92;;
10269;SDS011;70826;50.930;5.334;2023-12-20T11:00:26;5.13;;;3.50;;
10269;SDS011;70826;50.930;5.334;2023-12-20T11:02:58;5.20;;;3.90;;
10269;SDS011;70826;50.930;5.334;2023-12-20T11:05:31;4.40;;;3.50;;
10269;SDS011;70826;50.930;5.334;2023-12-20T11:10:43;5.68;;;3.83;;
10269;SDS011;70826;50.930;5.334;2023-12-20T11:13:23;5.47;;;3.63;;
10269;SDS011;70826;50.930;5.334;2023-12-20T11:15:56;6.00;;;3.90;;
10269;SDS011;70826;50.930;5.334;2023-12-20T11:18:30;5.50;;;4.05;;
10269;SDS011;70826;50.930;5.334;2023-12-20T11:21:00;6.30;;;4.10;;
10269;SDS011;70826;50.930;5.334;2023-12-20T11:23:30;4.28;;;3.72;;
10269;SDS011;70826;50.930;5.334;2023-12-20T11:25:59;6.40;;;4.15;;
10269;SDS011;70826;50.930;5.334;2023-12-20T11:28:27;6.93;;;4.32;;
10269;SDS011;70826;50.930;5.334;2023-12-20T11:30:55;4.85;;;4.25;;
10269;SDS011;70826;50.930;5.334;2023-12-20T11:33:45;6.95;;;4.32;;
10269;SDS011;70826;50.930;5.334;2023-12-20T11:36:14;5.25;;;4.03;;
10269;SDS011;70826;50.930;5.334;2023-12-20T11:39:00;5.78;;;4.22;;
10269;SDS011;70826;50.930;5.334;2023-12-20T11:41:36;5.07;;;4.43;;
10269;SDS011;70826;50.930;5.334;2023-12-20T11:44:04;5.47;;;4.38;;
10269;SDS011;70826;50.930;5.334;2023-12-20T11:46:29;4.53;;;4.10;;
10269;SDS011;70826;50.930;5.334;2023-12-20T11:48:56;6.75;;;4.68;;
10269;SDS011;70826;50.930;5.334;2023-12-20T11:51:24;6.90;;;4.63;;
10269;SDS011;70826;50.930;5.334;2023-12-20T11:53:54;7.47;;;4.55;;
10269;SDS011;70826;50.930;5.334;2023-12-20T11:56:22;4.93;;;4.43;;
10269;SDS011;70826;50.930;5.334;2023-12-20T11:58:48;6.20;;;4.72;;
10269;SDS011;70826;50.930;5.334;2023-12-20T12:01:14;5.40;;;4.25;;
10269;SDS011;70826;50.930;5.334;2023-12-20T12:03:40;5.13;;;4.63;;
10269;SDS011;70826;50.930;5.334;2023-12-20T12:06:11;7.32;;;4.72;;
10269;SDS011;70826;50.930;5.334;2023-12-20T12:08:38;5.20;;;4.28;;
10269;SDS011;70826;50.930;5.334;2023-12-20T12:11:09;5.75;;;4.80;;
10269;SDS011;70826;50.930;5.334;2023-12-20T12:13:34;5.72;;;4.63;;
10269;SDS011;70826;50.930;5.334;2023-12-20T12:16:00;7.85;;;4.88;;
10269;SDS011;70826;50.930;5.334;2023-12-20T12:18:28;5.80;;;4.88;;
10269;SDS011;70826;50.930;5.334;2023-12-20T12:20:59;5.20;;;4.22;;
10269;SDS011;70826;50.930;5.334;2023-12-20T12:23:28;7.70;;;5.20;;
10269;SDS011;70826;50.930;5.334;2023-12-20T12:25:53;5.30;;;4.78;;
10269;SDS011;70826;50.930;5.334;2023-12-20T12:28:25;5.43;;;4.88;;
10269;SDS011;70826;50.930;5.334;2023-12-20T12:30:59;5.97;;;4.90;;
10269;SDS011;70826;50.930;5.334;2023-12-20T12:33:25;5.97;;;4.85;;
10269;SDS011;70826;50.930;5.334;2023-12-20T12:35:54;5.40;;;4.90;;
10269;SDS011;70826;50.930;5.334;2023-12-20T12:38:23;5.55;;;4.97;;
10269;SDS011;70826;50.930;5.334;2023-12-20T12:40:52;6.30;;;4.75;;
10269;SDS011;70826;50.930;5.334;2023-12-20T12:43:18;6.25;;;5.13;;
10269;SDS011;70826;50.930;5.334;2023-12-20T12:45:44;7.25;;;5.25;;
10269;SDS011;70826;50.930;5.334;2023-12-20T12:48:10;6.45;;;4.88;;
10269;SDS011;70826;50.930;5.334;2023-12-20T12:50:38;6.18;;;5.57;;
10269;SDS011;70826;50.930;5.334;2023-12-20T12:53:03;5.40;;;4.90;;
10269;SDS011;70826;50.930;5.334;2023-12-20T12:55:29;6.07;;;5.10;;
10269;SDS011;70826;50.930;5.334;2023-12-20T12:57:54;9.40;;;5.40;;
10269;SDS011;70826;50.930;5.334;2023-12-20T13:00:22;7.22;;;4.82;;
10269;SDS011;70826;50.930;5.334;2023-12-20T13:02:52;13.82;;;5.20;;
10269;SDS011;70826;50.930;5.334;2023-12-20T13:05:17;7.40;;;5.43;;
10269;SDS011;70826;50.930;5.334;2023-12-20T13:07:43;10.60;;;5.00;;
10269;SDS011;70826;50.930;5.334;2023-12-20T13:10:13;5.82;;;4.53;;
10269;SDS011;70826;50.930;5.334;2023-12-20T13:12:42;6.93;;;5.20;;
10269;SDS011;70826;50.930;5.334;2023-12-20T13:15:10;8.30;;;5.10;;
10269;SDS011;70826;50.930;5.334;2023-12-20T13:17:36;5.95;;;4.50;;
10269;SDS011;70826;50.930;5.334;2023-12-20T13:20:05;8.10;;;4.50;;
10269;SDS011;70826;50.930;5.334;2023-12-20T13:22:34;5.85;;;4.25;;
10269;SDS011;70826;50.930;5.334;2023-12-20T13:25:00;7.15;;;4.30;;
10269;SDS011;70826;50.930;5.334;2023-12-20T13:27:28;5.18;;;4.25;;
10269;SDS011;70826;50.930;5.334;2023-12-20T13:29:53;4.57;;;4.03;;
10269;SDS011;70826;50.930;5.334;2023-12-20T13:32:19;5.60;;;4.00;;
10269;SDS011;70826;50.930;5.334;2023-12-20T13:34:45;6.35;;;4.15;;
10269;SDS011;70826;50.930;5.334;2023-12-20T13:37:11;6.28;;;4.75;;
10269;SDS011;70826;50.930;5.334;2023-12-20T13:39:36;6.00;;;4.63;;
10269;SDS011;70826;50.930;5.334;2023-12-20T13:42:02;7.05;;;4.50;;
10269;SDS011;70826;50.930;5.334;2023-12-20T13:44:28;6.45;;;4.63;;
10269;SDS011;70826;50.930;5.334;2023-12-20T13:46:56;5.90;;;4.50;;
10269;SDS011;70826;50.930;5.334;2023-12-20T13:49:24;5.10;;;4.60;;
10269;SDS011;70826;50.930;5.334;2023-12-20T13:51:50;6.70;;;4.88;;
10269;SDS011;70826;50.930;5.334;2023-12-20T13:54:16;9.32;;;5.28;;
10269;SDS011;70826;50.930;5.334;2023-12-20T13:56:45;5.53;;;5.03;;
10269;SDS011;70826;50.930;5.334;2023-12-20T13:59:11;5.32;;;4.82;;
10269;SDS011;70826;50.930;5.334;2023-12-20T14:01:39;5.38;;;4.93;;
10269;SDS011;70826;50.930;5.334;2023-12-20T14:04:10;5.72;;;4.85;;
10269;SDS011;70826;50.930;5.334;2023-12-20T14:06:38;5.88;;;5.18;;
10269;SDS011;70826;50.930;5.334;2023-12-20T14:09:03;6.78;;;5.40;;
10269;SDS011;70826;50.930;5.334;2023-12-20T14:11:33;5.85;;;5.18;;
10269;SDS011;70826;50.930;5.334;2023-12-20T14:13:59;7.72;;;5.45;;
10269;SDS011;70826;50.930;5.334;2023-12-20T14:16:29;5.90;;;5.10;;
10269;SDS011;70826;50.930;5.334;2023-12-20T14:18:59;5.63;;;5.15;;
10269;SDS011;70826;50.930;5.334;2023-12-20T14:21:28;6.38;;;5.55;;
10269;SDS011;70826;50.930;5.334;2023-12-20T14:23:53;6.60;;;5.13;;
10269;SDS011;70826;50.930;5.334;2023-12-20T14:26:21;5.68;;;5.22;;
10269;SDS011;70826;50.930;5.334;2023-12-20T14:28:52;6.82;;;5.22;;
10269;SDS011;70826;50.930;5.334;2023-12-20T14:31:20;6.03;;;5.43;;
10269;SDS011;70826;50.930;5.334;2023-12-20T14:33:53;6.18;;;5.57;;
10269;SDS011;70826;50.930;5.334;2023-12-20T14:36:19;6.43;;;5.35;;
10269;SDS011;70826;50.930;5.334;2023-12-20T14:38:45;8.25;;;5.50;;
10269;SDS011;70826;50.930;5.334;2023-12-20T14:41:17;6.18;;;5.32;;
10269;SDS011;70826;50.930;5.334;2023-12-20T14:43:47;6.38;;;5.50;;
10269;SDS011;70826;50.930;5.334;2023-12-20T14:46:20;6.22;;;5.65;;
10269;SDS011;70826;50.930;5.334;2023-12-20T14:48:48;6.18;;;5.57;;
10269;SDS011;70826;50.930;5.334;2023-12-20T14:51:16;5.70;;;5.20;;
10269;SDS011;70826;50.930;5.334;2023-12-20T14:53:41;5.75;;;5.18;;
10269;SDS011;70826;50.930;5.334;2023-12-20T14:56:09;7.38;;;5.43;;